createdAt,value
2019-02-06T00:04:38.824Z,5.40
2019-02-06T00:09:43.192Z,5.50
2019-02-06T00:14:48.753Z,5.40
2019-02-06T00:19:53.096Z,5.40
2019-02-06T00:24:57.284Z,5.20
2019-02-06T00:30:01.939Z,5.10
2019-02-06T00:35:06.578Z,5.10
2019-02-06T00:40:11.253Z,5.10
2019-02-06T00:45:15.612Z,5.00
2019-02-06T00:50:19.875Z,5.00
2019-02-06T00:55:24.123Z,4.90
2019-02-06T01:00:28.618Z,4.70
2019-02-06T01:05:38.486Z,4.60
2019-02-06T01:10:39.449Z,4.50
2019-02-06T01:15:43.783Z,4.50
2019-02-06T01:20:48.062Z,4.20
2019-02-06T01:25:52.553Z,4.30
2019-02-06T01:31:03.957Z,4.00
2019-02-06T01:36:08.195Z,4.00
2019-02-06T01:41:12.561Z,3.90
2019-02-06T01:46:16.872Z,3.90
2019-02-06T01:51:21.167Z,3.60
2019-02-06T01:56:25.485Z,3.60
2019-02-06T02:01:29.725Z,3.40
2019-02-06T02:06:33.969Z,3.30
2019-02-06T02:11:38.171Z,3.40
2019-02-06T02:16:42.445Z,3.50
2019-02-06T02:21:46.634Z,3.30
2019-02-06T02:26:50.919Z,3.10
2019-02-06T02:31:55.218Z,3.10
2019-02-06T02:36:59.455Z,3.20
2019-02-06T02:42:03.729Z,3.10
2019-02-06T02:47:08.152Z,2.90
2019-02-06T02:52:12.371Z,2.90
2019-02-06T02:57:16.923Z,2.90
2019-02-06T03:02:52.425Z,3.00
2019-02-06T03:07:56.777Z,2.80
2019-02-06T03:13:00.984Z,2.90
2019-02-06T03:18:05.261Z,3.00
2019-02-06T03:23:09.540Z,2.90
2019-02-06T03:28:13.775Z,3.00
2019-02-06T03:33:18.147Z,2.90
2019-02-06T03:38:22.440Z,2.80
2019-02-06T03:43:26.708Z,2.70
2019-02-06T03:48:30.930Z,2.80
2019-02-06T03:53:35.310Z,2.70
2019-02-06T03:58:39.709Z,2.80
2019-02-06T04:03:44.000Z,2.90
2019-02-06T04:08:48.566Z,2.70
2019-02-06T04:13:52.838Z,2.80
2019-02-06T04:18:57.506Z,2.80
2019-02-06T04:24:02.860Z,2.70
2019-02-06T04:29:07.058Z,2.90
2019-02-06T04:34:11.258Z,2.50
2019-02-06T04:39:15.453Z,2.50
2019-02-06T04:44:19.664Z,2.70
2019-02-06T04:49:23.849Z,2.80
2019-02-06T04:54:28.142Z,2.90
2019-02-06T04:59:32.425Z,2.80
2019-02-06T05:04:36.709Z,3.10
2019-02-06T05:09:41.070Z,3.00
2019-02-06T05:14:45.439Z,3.10
2019-02-06T05:19:49.697Z,3.10
2019-02-06T05:24:53.987Z,3.10
2019-02-06T05:29:58.231Z,3.00
2019-02-06T05:35:02.464Z,2.90
2019-02-06T05:40:06.981Z,3.10
2019-02-06T05:45:11.490Z,3.00
2019-02-06T05:50:16.194Z,3.00
2019-02-06T05:55:20.693Z,3.00
2019-02-06T06:00:30.841Z,3.00
2019-02-06T06:05:35.121Z,2.80
2019-02-06T06:10:39.430Z,3.10
2019-02-06T06:15:43.718Z,3.10
2019-02-06T06:20:48.036Z,3.20
2019-02-06T06:25:52.441Z,3.40
2019-02-06T06:30:56.693Z,3.30
2019-02-06T06:36:02.201Z,3.50
2019-02-06T06:41:06.496Z,3.70
2019-02-06T06:46:10.738Z,3.60
2019-02-06T06:51:15.197Z,3.60
2019-02-06T06:56:19.432Z,3.60
2019-02-06T07:01:23.646Z,3.70
2019-02-06T07:06:27.846Z,3.80
2019-02-06T07:11:32.114Z,3.80
2019-02-06T07:16:36.313Z,3.60
2019-02-06T07:21:40.564Z,3.70
2019-02-06T07:26:45.271Z,3.60
2019-02-06T07:31:49.548Z,3.70
2019-02-06T07:36:53.751Z,3.60
2019-02-06T07:41:58.080Z,3.80
2019-02-06T07:47:02.442Z,4.00
2019-02-06T07:52:07.023Z,4.30
2019-02-06T07:57:11.294Z,4.50
2019-02-06T08:02:15.525Z,4.70
2019-02-06T08:07:19.796Z,5.80
2019-02-06T08:12:24.037Z,6.40
2019-02-06T08:17:28.713Z,6.80
2019-02-06T08:22:33.040Z,6.30
2019-02-06T08:27:37.347Z,5.70
2019-02-06T08:32:41.630Z,5.40
2019-02-06T08:37:45.887Z,4.90
2019-02-06T08:42:50.138Z,5.00
2019-02-06T08:47:54.338Z,5.00
2019-02-06T08:52:58.695Z,5.30
2019-02-06T08:58:03.456Z,5.20
2019-02-06T09:03:09.274Z,5.20
2019-02-06T09:08:13.571Z,5.30
2019-02-06T09:13:19.093Z,5.70
2019-02-06T09:18:23.803Z,5.70
2019-02-06T09:23:28.115Z,5.50
2019-02-06T09:28:32.404Z,5.50
2019-02-06T09:33:36.675Z,5.50
2019-02-06T09:38:41.011Z,5.40
2019-02-06T09:43:45.523Z,5.30
2019-02-06T09:48:49.817Z,5.50
2019-02-06T09:53:54.097Z,5.70
2019-02-06T09:58:58.386Z,5.40
2019-02-06T10:04:02.673Z,5.60
2019-02-06T10:09:10.213Z,5.70
2019-02-06T10:14:14.441Z,5.90
2019-02-06T10:19:18.669Z,5.80
2019-02-06T10:24:22.986Z,6.10
2019-02-06T10:29:27.380Z,6.50
2019-02-06T10:34:31.709Z,6.60
2019-02-06T10:39:36.093Z,6.80
2019-02-06T10:44:40.466Z,7.10
2019-02-06T10:49:44.793Z,7.20
2019-02-06T10:54:49.082Z,7.70
2019-02-06T10:59:53.666Z,8.10
2019-02-06T11:04:57.893Z,7.70
2019-02-06T11:10:02.134Z,8.40
2019-02-06T11:15:07.647Z,9.10
2019-02-06T11:20:15.242Z,9.80
2019-02-06T11:25:19.481Z,9.80
2019-02-06T11:30:25.874Z,9.20
2019-02-06T11:35:30.080Z,9.10
2019-02-06T11:40:34.358Z,9.50
2019-02-06T11:45:38.658Z,9.40
2019-02-06T11:50:44.123Z,9.00
2019-02-06T11:55:48.477Z,8.60
2019-02-06T12:01:17.658Z,8.60
2019-02-06T12:23:44.946Z,8.60
2019-02-06T12:28:49.267Z,8.50
2019-02-06T12:33:53.639Z,8.40
2019-02-06T12:38:57.939Z,8.50
2019-02-06T12:44:02.175Z,8.20
2019-02-06T12:49:06.675Z,8.50
2019-02-06T12:54:10.971Z,8.70
2019-02-06T12:59:15.191Z,8.30
2019-02-06T13:04:19.875Z,8.50
2019-02-06T13:09:24.071Z,8.70
2019-02-06T13:14:28.319Z,8.60
2019-02-06T13:19:32.653Z,8.40
2019-02-06T13:24:36.915Z,8.40
2019-02-06T13:29:41.422Z,8.60
2019-02-06T13:34:45.766Z,8.30
2019-02-06T13:39:50.048Z,8.50
2019-02-06T13:44:54.331Z,8.50
2019-02-06T13:49:58.731Z,8.50
2019-02-06T13:55:02.996Z,8.80
2019-02-06T14:05:18.719Z,8.90
2019-02-06T14:10:25.426Z,8.80
2019-02-06T14:15:32.859Z,8.60
2019-02-06T14:20:37.334Z,8.70
2019-02-06T14:26:01.963Z,8.50
2019-02-06T14:31:34.030Z,8.70
2019-02-06T14:37:14.679Z,8.60
2019-02-06T14:47:58.718Z,8.60
2019-02-06T14:53:35.725Z,8.70
2019-02-06T14:59:19.677Z,9.00
2019-02-06T15:05:01.640Z,9.00
2019-02-06T15:10:35.345Z,9.10
2019-02-06T15:21:55.931Z,8.90
2019-02-06T15:27:22.549Z,9.10
